Terminal Aerodrome Forecast
Issued by NWS

Current Version | Previous Version | Text Only | Print | Product List | Glossary On
Versions: 1 2 3 4 5 6 7 8 9 10 11 12 13
000
FTUS42 TJSJ 161700 RRA
TAFISX
TAF
TISX 161739Z 1618/1718 12011KT P6SM VCSH SCT025 BKN050
     FM162230 09009KT P6SM FEW025 SCT070
     FM170530 07004KT P6SM VCSH SCT022 SCT035
     FM171400 10014KT P6SM FEW025 SCT050=

USA.gov is the U.S. government's official web portal to all federal, state and local government web resources and services.